createdAt,value
2019-03-20T00:00:41.906Z,3.00
2019-03-20T00:03:10.937Z,3.00
2019-03-20T00:05:40.834Z,2.73
2019-03-20T00:08:10.068Z,2.87
2019-03-20T00:10:39.223Z,3.20
2019-03-20T00:13:08.278Z,2.67
2019-03-20T00:15:37.600Z,2.80
2019-03-20T00:18:06.991Z,3.30
2019-03-20T00:20:36.098Z,3.43
2019-03-20T00:23:05.119Z,2.60
2019-03-20T00:25:34.090Z,3.10
2019-03-20T00:28:03.315Z,2.90
2019-03-20T00:30:32.350Z,2.80
2019-03-20T00:33:01.673Z,3.10
2019-03-20T00:35:30.755Z,3.40
2019-03-20T00:38:00.044Z,2.70
2019-03-20T00:40:29.397Z,2.70
2019-03-20T00:42:58.358Z,2.60
2019-03-20T00:45:27.308Z,2.67
2019-03-20T00:47:56.331Z,3.05
2019-03-20T00:50:26.154Z,2.58
2019-03-20T00:52:55.171Z,2.87
2019-03-20T00:55:24.241Z,2.67
2019-03-20T00:57:53.207Z,2.62
2019-03-20T01:00:22.227Z,2.52
2019-03-20T01:02:51.284Z,3.17
2019-03-20T01:05:21.366Z,3.17
2019-03-20T01:07:50.439Z,3.10
2019-03-20T01:10:19.455Z,2.77
2019-03-20T01:12:48.425Z,3.37
2019-03-20T01:15:17.464Z,2.75
2019-03-20T01:17:46.570Z,2.80
2019-03-20T01:20:16.859Z,2.58
2019-03-20T01:22:46.015Z,2.80
2019-03-20T01:25:15.856Z,2.90
2019-03-20T01:27:44.919Z,2.77
2019-03-20T01:30:31.496Z,3.00
2019-03-20T01:33:02.081Z,2.83
2019-03-20T01:35:31.206Z,3.00
2019-03-20T01:38:00.134Z,2.98
2019-03-20T01:40:29.392Z,2.60
2019-03-20T01:42:58.868Z,3.00
2019-03-20T01:45:27.938Z,2.60
2019-03-20T01:47:57.006Z,2.50
2019-03-20T01:50:26.571Z,2.92
2019-03-20T01:52:55.583Z,2.92
2019-03-20T01:55:24.611Z,2.98
2019-03-20T01:57:53.890Z,2.92
2019-03-20T02:00:23.010Z,2.72
2019-03-20T02:02:52.052Z,3.02
2019-03-20T02:05:20.980Z,3.22
2019-03-20T02:07:49.998Z,3.05
2019-03-20T02:10:18.978Z,3.00
2019-03-20T02:12:47.942Z,2.77
2019-03-20T02:15:17.011Z,2.67
2019-03-20T02:17:46.018Z,3.08
2019-03-20T02:20:15.752Z,3.37
2019-03-20T02:22:44.879Z,2.62
2019-03-20T02:25:14.271Z,3.10
2019-03-20T02:27:43.493Z,2.87
2019-03-20T02:30:14.981Z,2.77
2019-03-20T02:32:44.500Z,3.30
2019-03-20T02:35:13.518Z,2.95
2019-03-20T02:37:42.560Z,3.30
2019-03-20T02:40:11.618Z,3.05
2019-03-20T02:42:40.786Z,2.75
2019-03-20T02:45:11.568Z,3.20
2019-03-20T02:47:40.516Z,3.33
2019-03-20T02:50:10.221Z,3.17
2019-03-20T02:52:39.236Z,3.70
2019-03-20T02:55:08.998Z,3.17
2019-03-20T02:57:38.413Z,3.62
2019-03-20T03:00:08.834Z,2.90
2019-03-20T03:02:38.207Z,2.77
2019-03-20T03:05:08.351Z,3.02
2019-03-20T03:07:37.410Z,2.35
2019-03-20T03:10:08.491Z,3.30
2019-03-20T03:12:37.764Z,2.92
2019-03-20T03:15:08.132Z,3.10
2019-03-20T03:17:37.085Z,3.67
2019-03-20T03:20:06.251Z,2.98
2019-03-20T03:22:35.290Z,3.10
2019-03-20T03:25:05.033Z,3.27
2019-03-20T03:27:34.654Z,3.20
2019-03-20T03:30:03.723Z,3.52
2019-03-20T03:32:32.755Z,3.20
2019-03-20T03:35:02.077Z,3.37
2019-03-20T03:37:31.248Z,2.83
2019-03-20T03:40:00.607Z,3.05
2019-03-20T03:42:29.910Z,3.20
2019-03-20T03:44:58.977Z,3.25
2019-03-20T03:47:28.357Z,3.20
2019-03-20T03:49:58.372Z,3.10
2019-03-20T03:52:27.741Z,2.90
2019-03-20T03:54:56.637Z,2.98
2019-03-20T03:57:25.627Z,3.23
2019-03-20T03:59:54.729Z,2.70
2019-03-20T04:02:24.311Z,3.10
2019-03-20T04:04:53.327Z,2.92
2019-03-20T04:07:23.815Z,3.17
2019-03-20T04:09:52.931Z,3.25
2019-03-20T04:12:21.973Z,3.00
2019-03-20T04:14:51.038Z,3.30
2019-03-20T04:17:27.802Z,3.10
2019-03-20T04:19:56.919Z,3.08
2019-03-20T04:22:26.349Z,3.00
2019-03-20T04:24:55.316Z,3.10
2019-03-20T04:27:24.363Z,3.17
2019-03-20T04:29:53.375Z,2.87
2019-03-20T04:32:22.692Z,3.13
2019-03-20T04:34:51.517Z,3.20
2019-03-20T04:37:20.546Z,3.70
2019-03-20T04:39:49.563Z,3.33
2019-03-20T04:42:18.528Z,3.12
2019-03-20T04:44:47.369Z,3.40
2019-03-20T04:47:16.580Z,3.23
2019-03-20T04:49:45.818Z,3.65
2019-03-20T04:52:15.044Z,3.10
2019-03-20T04:54:44.413Z,3.65
2019-03-20T04:57:13.347Z,3.80
2019-03-20T04:59:42.391Z,3.40
2019-03-20T05:02:11.458Z,3.40
2019-03-20T05:04:40.308Z,3.22
2019-03-20T05:07:09.201Z,3.17
2019-03-20T05:09:38.134Z,3.12
2019-03-20T05:12:07.426Z,3.53
2019-03-20T05:14:36.531Z,4.28
2019-03-20T05:17:05.579Z,2.83
2019-03-20T05:19:34.447Z,2.98
2019-03-20T05:22:03.421Z,4.03
2019-03-20T05:24:32.226Z,3.50
2019-03-20T05:27:01.540Z,3.50
2019-03-20T05:29:30.359Z,3.62
2019-03-20T05:31:59.218Z,3.80
2019-03-20T05:34:28.603Z,3.37
2019-03-20T05:36:57.707Z,4.03
2019-03-20T05:39:26.854Z,3.17
2019-03-20T05:41:55.708Z,3.20
2019-03-20T05:44:25.191Z,3.40
2019-03-20T05:46:54.224Z,3.13
2019-03-20T05:49:23.160Z,3.33
2019-03-20T05:51:52.118Z,3.30
2019-03-20T05:54:21.099Z,3.35
2019-03-20T05:56:50.211Z,3.00
2019-03-20T05:59:19.211Z,3.33
2019-03-20T06:01:48.224Z,3.63
2019-03-20T06:04:17.168Z,3.80
2019-03-20T06:06:46.299Z,3.27
2019-03-20T06:09:15.503Z,3.40
2019-03-20T06:11:44.603Z,2.98
2019-03-20T06:14:13.547Z,3.40
2019-03-20T06:16:42.815Z,3.47
2019-03-20T06:19:11.875Z,4.28
2019-03-20T06:21:40.897Z,4.08
2019-03-20T06:24:09.955Z,3.83
2019-03-20T06:26:39.444Z,3.85
2019-03-20T06:29:08.507Z,3.35
2019-03-20T06:31:37.422Z,3.67
2019-03-20T06:34:06.324Z,3.20
2019-03-20T06:36:35.399Z,2.62
2019-03-20T06:39:06.631Z,3.22
2019-03-20T06:41:35.648Z,3.17
2019-03-20T06:44:04.617Z,3.37
2019-03-20T06:46:34.051Z,3.33
2019-03-20T06:49:03.121Z,2.95
2019-03-20T06:51:32.587Z,3.33
2019-03-20T06:54:01.634Z,2.55
2019-03-20T06:56:30.581Z,3.17
2019-03-20T06:59:49.241Z,2.75
2019-03-20T07:02:19.841Z,3.00
2019-03-20T07:04:58.868Z,3.40
2019-03-20T07:07:43.687Z,2.50
2019-03-20T07:10:22.160Z,3.93
2019-03-20T07:12:51.478Z,3.50
2019-03-20T07:15:20.926Z,3.13
2019-03-20T07:17:49.922Z,3.00
2019-03-20T07:20:19.263Z,3.20
2019-03-20T07:22:48.649Z,3.03
2019-03-20T07:25:18.083Z,2.87
2019-03-20T07:27:47.447Z,3.33
2019-03-20T07:30:16.514Z,3.03
2019-03-20T07:32:45.486Z,3.50
2019-03-20T07:35:14.458Z,3.30
2019-03-20T07:37:43.489Z,3.40
2019-03-20T07:40:12.579Z,3.00
2019-03-20T07:42:41.627Z,3.10
2019-03-20T07:45:11.016Z,3.40
2019-03-20T07:47:40.240Z,2.87
2019-03-20T07:50:09.683Z,3.07
2019-03-20T07:52:38.887Z,2.63
2019-03-20T07:55:08.191Z,2.77
2019-03-20T07:57:37.243Z,2.87
2019-03-20T08:00:07.744Z,2.33
2019-03-20T08:02:37.155Z,2.70
2019-03-20T08:05:06.874Z,3.10
2019-03-20T08:07:36.254Z,3.23
2019-03-20T08:10:06.446Z,2.90
2019-03-20T08:12:35.582Z,2.80
2019-03-20T08:15:05.107Z,2.23
2019-03-20T08:17:34.062Z,2.40
2019-03-20T08:20:03.378Z,2.77
2019-03-20T08:22:32.299Z,2.77
2019-03-20T08:25:01.310Z,2.90
2019-03-20T08:27:30.382Z,2.57
2019-03-20T08:30:00.660Z,2.67
2019-03-20T08:32:29.603Z,2.37
2019-03-20T08:34:59.026Z,2.37
2019-03-20T08:37:28.127Z,2.30
2019-03-20T08:39:57.475Z,2.33
2019-03-20T08:42:26.552Z,2.50
2019-03-20T08:44:55.651Z,2.80
2019-03-20T08:47:24.738Z,2.70
2019-03-20T08:49:53.731Z,2.77
2019-03-20T08:52:23.098Z,2.50
2019-03-20T08:54:52.313Z,2.27
2019-03-20T08:57:21.380Z,2.33
2019-03-20T08:59:50.792Z,2.30
2019-03-20T09:02:19.728Z,2.20
2019-03-20T09:04:49.377Z,2.80
2019-03-20T09:07:18.475Z,2.30
2019-03-20T09:09:47.444Z,2.37
2019-03-20T09:12:17.075Z,2.40
2019-03-20T09:14:46.146Z,2.33
2019-03-20T09:17:15.234Z,2.60
2019-03-20T09:19:44.278Z,2.00
2019-03-20T09:22:13.363Z,2.57
2019-03-20T09:24:42.548Z,2.00
2019-03-20T09:27:11.704Z,2.30
2019-03-20T09:29:41.234Z,2.03
2019-03-20T09:32:10.349Z,2.30
2019-03-20T09:34:39.363Z,2.50
2019-03-20T09:37:08.967Z,1.90
2019-03-20T09:39:38.019Z,2.43
2019-03-20T09:42:07.261Z,2.40
2019-03-20T09:44:36.232Z,1.93
2019-03-20T09:47:05.811Z,2.50
2019-03-20T09:49:34.775Z,1.90
2019-03-20T09:52:03.886Z,2.40
2019-03-20T09:54:32.770Z,2.60
2019-03-20T09:57:01.953Z,2.70
2019-03-20T09:59:30.958Z,2.50
2019-03-20T10:02:00.268Z,2.27
2019-03-20T10:04:29.431Z,2.43
2019-03-20T10:06:58.503Z,2.10
2019-03-20T10:09:27.489Z,2.20
2019-03-20T10:11:57.595Z,2.20
2019-03-20T10:14:26.717Z,2.30
2019-03-20T10:16:55.810Z,2.13
2019-03-20T10:19:24.870Z,2.17
2019-03-20T10:21:53.822Z,2.00
2019-03-20T10:24:22.891Z,2.30
2019-03-20T10:26:51.903Z,1.83
2019-03-20T10:29:20.721Z,2.43
2019-03-20T10:31:49.844Z,2.10
2019-03-20T10:34:19.284Z,2.10
2019-03-20T10:36:48.138Z,2.10
2019-03-20T10:39:17.179Z,2.23
2019-03-20T10:41:46.591Z,2.67
2019-03-20T10:44:15.962Z,2.40
2019-03-20T10:46:44.959Z,2.50
2019-03-20T10:49:13.939Z,2.33
2019-03-20T10:51:42.908Z,2.17
2019-03-20T10:54:11.935Z,2.50
2019-03-20T10:56:40.926Z,2.27
2019-03-20T10:59:10.075Z,2.20
2019-03-20T11:01:42.750Z,2.40
2019-03-20T11:04:10.173Z,2.30
2019-03-20T11:06:39.353Z,2.77
2019-03-20T11:09:17.739Z,3.07
2019-03-20T11:11:39.885Z,2.70
2019-03-20T11:14:08.889Z,2.40
2019-03-20T11:16:37.832Z,2.60
2019-03-20T11:19:06.915Z,2.30
2019-03-20T11:21:35.953Z,3.00
2019-03-20T11:24:05.388Z,2.33
2019-03-20T11:26:34.367Z,2.60
2019-03-20T11:29:03.442Z,2.83
2019-03-20T11:31:32.661Z,3.57
2019-03-20T11:34:01.958Z,2.17
2019-03-20T11:36:30.888Z,2.20
2019-03-20T11:39:00.163Z,2.50
2019-03-20T11:41:29.218Z,2.07
2019-03-20T11:43:58.043Z,2.43
2019-03-20T11:46:27.252Z,2.53
2019-03-20T11:48:56.939Z,2.93
2019-03-20T11:51:25.844Z,2.13
2019-03-20T11:53:55.262Z,2.43
2019-03-20T11:56:24.343Z,2.30
2019-03-20T11:58:53.354Z,2.60
2019-03-20T12:01:22.515Z,2.53
2019-03-20T12:03:51.443Z,2.27
2019-03-20T12:06:20.470Z,2.70
2019-03-20T12:08:49.379Z,2.30
2019-03-20T12:11:18.624Z,2.27
2019-03-20T12:13:47.985Z,2.03
2019-03-20T12:16:17.283Z,2.00
2019-03-20T12:18:46.230Z,1.90
2019-03-20T12:21:15.191Z,2.30
2019-03-20T12:23:44.093Z,1.90
2019-03-20T12:26:13.095Z,1.87
2019-03-20T12:28:42.047Z,1.60
2019-03-20T12:31:11.108Z,1.37
2019-03-20T12:33:40.164Z,2.30
2019-03-20T12:36:09.280Z,2.17
2019-03-20T12:38:38.303Z,2.30
2019-03-20T12:41:07.299Z,2.00
2019-03-20T12:43:36.372Z,2.27
2019-03-20T12:46:05.423Z,1.60
2019-03-20T12:48:35.133Z,1.90
2019-03-20T12:51:04.485Z,1.70
2019-03-20T12:53:33.827Z,1.53
2019-03-20T12:56:02.739Z,1.10
2019-03-20T12:58:31.972Z,1.20
2019-03-20T13:01:01.070Z,1.27
2019-03-20T13:03:30.844Z,1.23
2019-03-20T13:06:00.111Z,1.40
2019-03-20T13:08:29.451Z,1.30
2019-03-20T13:10:58.830Z,1.40
2019-03-20T13:13:27.787Z,1.40
2019-03-20T13:15:56.762Z,1.50
2019-03-20T13:18:25.831Z,1.40
2019-03-20T13:20:54.768Z,1.23
2019-03-20T13:23:25.918Z,1.47
2019-03-20T13:25:54.865Z,1.63
2019-03-20T13:28:23.990Z,1.80
2019-03-20T13:30:59.358Z,1.37
2019-03-20T13:33:28.464Z,1.30
2019-03-20T13:35:57.335Z,1.37
2019-03-20T13:38:26.186Z,1.20
2019-03-20T13:40:55.151Z,1.27
2019-03-20T13:43:23.995Z,1.47
2019-03-20T13:45:53.247Z,1.20
2019-03-20T13:48:22.704Z,1.90
2019-03-20T13:50:51.675Z,2.00
2019-03-20T13:53:20.734Z,1.67
2019-03-20T13:55:50.115Z,1.50
2019-03-20T13:58:19.127Z,1.80
2019-03-20T14:00:48.231Z,1.93
2019-03-20T14:03:17.271Z,2.50
2019-03-20T14:05:46.334Z,1.87
2019-03-20T14:08:15.439Z,2.17
2019-03-20T14:10:50.442Z,2.10
2019-03-20T14:13:15.196Z,1.73
2019-03-20T14:15:44.526Z,1.90
2019-03-20T14:18:13.457Z,1.60
2019-03-20T14:20:42.441Z,2.07
2019-03-20T14:23:11.746Z,1.60
2019-03-20T14:25:40.633Z,1.97
2019-03-20T14:28:09.967Z,1.93
2019-03-20T14:30:38.943Z,1.50
2019-03-20T14:33:08.243Z,1.40
2019-03-20T14:35:37.304Z,1.40
2019-03-20T14:38:06.271Z,1.90
2019-03-20T14:40:36.552Z,1.70
2019-03-20T14:43:06.108Z,1.47
2019-03-20T14:45:35.319Z,1.60
2019-03-20T14:48:04.366Z,1.70
2019-03-20T14:50:33.454Z,2.07
2019-03-20T14:53:02.515Z,1.90
2019-03-20T14:55:31.550Z,2.17
2019-03-20T14:58:00.586Z,1.73
2019-03-20T15:00:29.612Z,2.20
2019-03-20T15:02:58.829Z,1.87
2019-03-20T15:05:27.922Z,1.70
2019-03-20T15:07:57.044Z,2.13
2019-03-20T15:10:26.149Z,2.40
2019-03-20T15:12:55.343Z,2.27
2019-03-20T15:15:30.592Z,2.03
2019-03-20T15:17:59.541Z,2.90
2019-03-20T15:20:28.559Z,1.70
2019-03-20T15:22:57.663Z,2.10
2019-03-20T15:25:26.606Z,1.90
2019-03-20T15:27:55.951Z,2.20
2019-03-20T15:30:25.078Z,2.03
2019-03-20T15:32:54.173Z,2.10
2019-03-20T15:35:23.723Z,2.20
2019-03-20T15:37:53.147Z,2.60
2019-03-20T15:40:22.315Z,2.13
2019-03-20T15:42:51.385Z,2.20
2019-03-20T15:45:20.429Z,2.00
2019-03-20T15:47:49.915Z,1.97
2019-03-20T15:50:19.272Z,2.00
2019-03-20T15:52:48.443Z,2.27
2019-03-20T15:55:20.515Z,1.90
2019-03-20T15:57:49.629Z,1.83
2019-03-20T16:00:19.103Z,2.10
2019-03-20T16:02:49.146Z,1.80
2019-03-20T16:05:18.188Z,1.37
2019-03-20T16:07:47.081Z,1.50
2019-03-20T16:10:18.018Z,1.60
2019-03-20T16:12:47.051Z,1.87
2019-03-20T16:15:17.743Z,1.47
2019-03-20T16:17:46.754Z,1.30
2019-03-20T16:20:15.795Z,1.10
2019-03-20T16:22:45.167Z,1.47
2019-03-20T16:25:14.857Z,1.07
2019-03-20T16:27:43.815Z,1.17
2019-03-20T16:30:15.387Z,1.13
2019-03-20T16:32:44.711Z,1.00
2019-03-20T16:35:13.634Z,1.10
2019-03-20T16:37:42.698Z,1.00
2019-03-20T16:40:14.285Z,0.90
2019-03-20T16:42:43.191Z,1.10
2019-03-20T16:45:20.780Z,0.80
2019-03-20T16:47:49.814Z,1.10
2019-03-20T16:50:18.873Z,0.80
2019-03-20T16:52:48.049Z,1.10
2019-03-20T16:55:17.411Z,0.70
2019-03-20T16:57:46.311Z,0.90
2019-03-20T17:00:23.419Z,0.90
2019-03-20T17:02:52.439Z,0.80
2019-03-20T17:05:22.025Z,0.80
2019-03-20T17:07:51.204Z,0.70
2019-03-20T17:10:22.539Z,0.70
2019-03-20T17:12:51.544Z,0.83
2019-03-20T17:15:22.230Z,0.90
2019-03-20T17:17:51.225Z,0.73
2019-03-20T17:20:20.359Z,0.70
2019-03-20T17:22:49.342Z,0.70
2019-03-20T17:25:18.714Z,0.70
2019-03-20T17:27:47.646Z,0.60
2019-03-20T17:30:19.059Z,0.70
2019-03-20T17:32:48.105Z,0.93
2019-03-20T17:35:17.077Z,1.00
2019-03-20T17:37:46.025Z,0.73
2019-03-20T17:40:16.171Z,0.50
2019-03-20T17:42:45.166Z,0.70
2019-03-20T17:45:15.143Z,0.57
2019-03-20T17:47:44.126Z,0.60
2019-03-20T17:50:15.945Z,0.50
2019-03-20T17:52:45.604Z,0.80
2019-03-20T17:55:14.605Z,1.13
2019-03-20T17:57:44.110Z,1.00
2019-03-20T18:00:16.312Z,1.00
2019-03-20T18:02:45.214Z,0.97
2019-03-20T18:05:14.378Z,0.80
2019-03-20T18:07:43.322Z,0.83
2019-03-20T18:10:12.641Z,0.70
2019-03-20T18:12:41.678Z,0.70
2019-03-20T18:15:11.663Z,0.60
2019-03-20T18:17:40.637Z,0.80
2019-03-20T18:20:10.858Z,0.70
2019-03-20T18:22:39.902Z,0.83
2019-03-20T18:25:09.998Z,0.80
2019-03-20T18:27:39.383Z,0.90
2019-03-20T18:30:15.647Z,0.80
2019-03-20T18:32:44.554Z,1.10
2019-03-20T18:35:14.155Z,1.00
2019-03-20T18:37:43.686Z,1.10
2019-03-20T18:40:14.398Z,1.00
2019-03-20T18:42:43.423Z,0.87
2019-03-20T18:45:13.082Z,1.40
2019-03-20T18:47:42.224Z,1.70
2019-03-20T18:50:11.526Z,1.80
2019-03-20T18:52:40.519Z,2.00
2019-03-20T18:55:10.314Z,1.70
2019-03-20T18:57:39.594Z,2.30
2019-03-20T19:00:12.346Z,2.80
2019-03-20T19:02:41.306Z,3.30
2019-03-20T19:05:12.745Z,3.47
2019-03-20T19:07:42.094Z,3.53
2019-03-20T19:10:11.497Z,4.03
2019-03-20T19:12:40.545Z,3.63
2019-03-20T19:15:09.908Z,3.23
2019-03-20T19:17:39.063Z,2.50
2019-03-20T19:20:08.965Z,2.30
2019-03-20T19:22:38.342Z,2.03
2019-03-20T19:25:08.467Z,2.35
2019-03-20T19:27:37.587Z,2.10
2019-03-20T19:30:10.568Z,1.80
2019-03-20T19:32:39.590Z,1.60
2019-03-20T19:35:08.880Z,1.33
2019-03-20T19:37:38.550Z,2.00
2019-03-20T19:40:07.945Z,2.62
2019-03-20T19:42:37.353Z,2.40
2019-03-20T19:45:06.773Z,2.60
2019-03-20T19:47:35.705Z,2.13
2019-03-20T19:50:05.771Z,2.35
2019-03-20T19:52:34.723Z,2.53
2019-03-20T19:55:03.905Z,1.90
2019-03-20T19:57:33.136Z,1.90
2019-03-20T20:00:02.514Z,1.63
2019-03-20T20:02:31.753Z,1.52
2019-03-20T20:05:00.668Z,1.67
2019-03-20T20:07:29.525Z,1.47
2019-03-20T20:09:58.404Z,1.57
2019-03-20T20:12:31.357Z,1.80
2019-03-20T20:14:58.750Z,1.75
2019-03-20T20:17:27.704Z,1.57
2019-03-20T20:19:56.711Z,1.80
2019-03-20T20:22:25.699Z,1.40
2019-03-20T20:24:54.813Z,1.80
2019-03-20T20:27:24.262Z,2.00
2019-03-20T20:29:53.147Z,1.80
2019-03-20T20:32:22.093Z,2.53
2019-03-20T20:34:51.635Z,2.40
2019-03-20T20:37:20.727Z,2.12
2019-03-20T20:39:50.103Z,1.85
2019-03-20T20:42:19.379Z,2.30
2019-03-20T20:44:48.419Z,1.95
2019-03-20T20:47:17.344Z,2.37
2019-03-20T20:49:46.363Z,2.22
2019-03-20T20:52:19.629Z,2.40
2019-03-20T20:54:45.962Z,2.33
2019-03-20T20:57:14.837Z,2.43
2019-03-20T20:59:43.900Z,2.47
2019-03-20T21:02:13.716Z,3.00
2019-03-20T21:04:42.896Z,2.40
2019-03-20T21:07:12.130Z,2.43
2019-03-20T21:09:41.199Z,2.20
2019-03-20T21:12:10.220Z,2.20
2019-03-20T21:14:39.166Z,2.50
2019-03-20T21:17:12.144Z,2.67
2019-03-20T21:19:41.820Z,2.80
2019-03-20T21:23:04.247Z,2.20
2019-03-20T21:25:33.626Z,2.90
2019-03-20T21:28:50.510Z,2.70
2019-03-20T21:31:47.262Z,2.30
2019-03-20T21:34:42.487Z,2.65
2019-03-20T21:37:51.065Z,2.33
2019-03-20T21:40:21.759Z,2.67
2019-03-20T21:43:26.995Z,2.77
2019-03-20T21:46:29.906Z,2.53
2019-03-20T21:48:59.441Z,2.20
2019-03-20T21:51:28.902Z,2.20
2019-03-20T21:54:42.755Z,2.58
2019-03-20T21:57:42.070Z,2.80
2019-03-20T22:00:50.731Z,2.70
2019-03-20T22:03:20.313Z,2.47
2019-03-20T22:06:33.736Z,2.30
2019-03-20T22:09:10.674Z,2.72
2019-03-20T22:12:05.911Z,2.90
2019-03-20T22:14:35.487Z,2.75
2019-03-20T22:17:32.212Z,2.53
2019-03-20T22:20:14.452Z,2.42
2019-03-20T22:23:30.359Z,2.67
2019-03-20T22:26:32.506Z,2.83
2019-03-20T22:29:20.663Z,2.30
2019-03-20T22:32:15.693Z,2.67
2019-03-20T22:35:29.296Z,2.60
2019-03-20T22:37:59.875Z,2.85
2019-03-20T22:41:16.283Z,2.47
2019-03-20T22:43:59.199Z,2.33
2019-03-20T22:47:01.799Z,2.90
2019-03-20T22:50:01.618Z,2.60
2019-03-20T22:52:45.192Z,3.00
2019-03-20T22:55:51.658Z,2.80
2019-03-20T22:58:42.736Z,3.20
2019-03-20T23:01:44.973Z,2.77
2019-03-20T23:04:32.584Z,2.67
2019-03-20T23:07:02.113Z,3.40
2019-03-20T23:09:31.755Z,2.87
2019-03-20T23:12:03.713Z,2.70
2019-03-20T23:14:33.243Z,2.98
2019-03-20T23:17:02.748Z,2.70
2019-03-20T23:19:32.440Z,2.60
2019-03-20T23:22:01.869Z,3.25
2019-03-20T23:24:31.384Z,3.00
2019-03-20T23:27:02.375Z,3.02
2019-03-20T23:29:31.761Z,3.17
2019-03-20T23:32:01.177Z,3.20
2019-03-20T23:34:30.976Z,2.98
2019-03-20T23:37:00.663Z,2.90
2019-03-20T23:39:30.060Z,3.08
2019-03-20T23:41:59.561Z,3.23
2019-03-20T23:44:29.242Z,3.10
2019-03-20T23:46:58.686Z,2.70
2019-03-20T23:49:28.202Z,2.75
2019-03-20T23:51:58.069Z,3.23
2019-03-20T23:54:31.655Z,3.33
2019-03-20T23:57:01.110Z,3.55
2019-03-20T23:59:30.567Z,3.65
